Time;durP1;ratioP1;P1;durP2;ratioP2;P2;SDS_P1;SDS_P2;PMS_P1;PMS_P2;Temp;Humidity;BMP_temperature;BMP_pressure;BME280_temperature;BME280_humidity;BME280_pressure;Samples;Min_cycle;Max_cycle;Signal;HPM_P1;HPM_P2
2023/09/21 00:00:09;;;;;;;9.50;1.80;;;;;;;;;;4996302;28;20208;-91
2023/09/21 00:02:38;;;;;;;8.00;1.77;;;;;;;;;;4997461;28;20233;-91
2023/09/21 00:05:09;;;;;;;8.50;1.52;;;;;;;;;;4996988;28;20201;-91
2023/09/21 00:07:37;;;;;;;9.18;1.45;;;;;;;;;;4996843;28;20201;-92
2023/09/21 00:10:06;;;;;;;5.65;1.23;;;;;;;;;;4996993;28;20198;-92
2023/09/21 00:12:34;;;;;;;7.40;1.40;;;;;;;;;;4998657;28;20229;-95
2023/09/21 00:15:04;;;;;;;4.00;1.10;;;;;;;;;;5002242;28;20234;-93
2023/09/21 00:17:32;;;;;;;6.88;1.40;;;;;;;;;;5004207;28;20813;-96
2023/09/21 00:20:00;;;;;;;5.47;1.40;;;;;;;;;;5003662;28;20244;-95
2023/09/21 00:22:31;;;;;;;8.90;1.42;;;;;;;;;;5003072;28;20205;-94
2023/09/21 00:24:58;;;;;;;5.28;1.40;;;;;;;;;;5003781;28;20222;-94
2023/09/21 00:27:28;;;;;;;7.53;1.35;;;;;;;;;;4998318;28;20201;-92
2023/09/21 00:29:55;;;;;;;4.88;1.02;;;;;;;;;;4996923;28;20547;-94
2023/09/21 00:32:25;;;;;;;4.75;1.13;;;;;;;;;;4997658;28;20230;-96
2023/09/21 00:34:52;;;;;;;5.90;1.10;;;;;;;;;;4997867;28;20684;-94
2023/09/21 00:37:20;;;;;;;7.47;1.42;;;;;;;;;;4997382;28;20202;-95
2023/09/21 00:39:49;;;;;;;4.60;1.35;;;;;;;;;;4996719;28;20289;-95
2023/09/21 00:42:19;;;;;;;8.85;1.15;;;;;;;;;;4997669;28;20229;-95
2023/09/21 00:44:46;;;;;;;10.07;1.40;;;;;;;;;;4996669;28;20260;-95
2023/09/21 00:47:14;;;;;;;8.32;1.55;;;;;;;;;;4996504;28;20206;-94
2023/09/21 00:49:41;;;;;;;12.13;1.65;;;;;;;;;;4995976;28;20232;-94
2023/09/21 00:52:12;;;;;;;6.10;1.48;;;;;;;;;;4996586;28;20268;-95
2023/09/21 00:54:40;;;;;;;7.72;1.38;;;;;;;;;;4996545;28;20665;-94
2023/09/21 00:57:11;;;;;;;7.35;1.52;;;;;;;;;;4996215;28;20198;-93
2023/09/21 00:59:40;;;;;;;8.25;1.90;;;;;;;;;;4996583;28;20256;-91
2023/09/21 01:02:11;;;;;;;7.47;1.50;;;;;;;;;;4996193;28;20637;-92
2023/09/21 01:04:39;;;;;;;9.70;1.60;;;;;;;;;;4995478;28;20202;-93
2023/09/21 01:07:17;;;;;;;7.50;1.38;;;;;;;;;;4996873;28;20206;-92
2023/09/21 01:09:45;;;;;;;6.40;1.88;;;;;;;;;;4995962;28;20628;-94
2023/09/21 01:12:14;;;;;;;6.90;1.50;;;;;;;;;;4995106;28;20259;-90
2023/09/21 01:14:44;;;;;;;7.13;1.60;;;;;;;;;;4995861;28;20205;-90
2023/09/21 01:17:13;;;;;;;8.38;1.77;;;;;;;;;;4994082;28;20202;-92
2023/09/21 01:19:41;;;;;;;9.02;1.48;;;;;;;;;;4976284;28;20206;-93
2023/09/21 01:22:12;;;;;;;4.53;1.27;;;;;;;;;;4976395;28;20237;-91
2023/09/21 01:24:42;;;;;;;5.05;1.20;;;;;;;;;;4977823;28;20205;-91
2023/09/21 01:27:10;;;;;;;6.50;1.55;;;;;;;;;;4977809;28;20210;-92
2023/09/21 01:29:37;;;;;;;4.43;1.30;;;;;;;;;;4976412;28;20634;-91
2023/09/21 01:32:04;;;;;;;5.03;1.08;;;;;;;;;;4975745;28;20606;-91
2023/09/21 01:34:35;;;;;;;5.13;0.90;;;;;;;;;;4977860;28;20253;-91
2023/09/21 01:37:03;;;;;;;5.93;1.13;;;;;;;;;;4975842;28;20277;-90
2023/09/21 01:39:32;;;;;;;6.20;1.10;;;;;;;;;;4976174;28;20608;-91
2023/09/21 01:42:01;;;;;;;3.85;0.85;;;;;;;;;;4975807;28;20198;-91
2023/09/21 01:44:28;;;;;;;3.42;0.73;;;;;;;;;;4976599;28;20198;-92
2023/09/21 01:46:56;;;;;;;4.30;1.10;;;;;;;;;;4976497;28;20206;-90
2023/09/21 01:49:23;;;;;;;4.75;1.08;;;;;;;;;;4975527;28;20234;-90
2023/09/21 01:51:52;;;;;;;4.72;0.95;;;;;;;;;;4975947;28;20318;-91
2023/09/21 01:54:19;;;;;;;4.40;0.90;;;;;;;;;;4976193;28;20253;-91
2023/09/21 01:56:46;;;;;;;3.60;1.00;;;;;;;;;;4975354;28;20278;-92
2023/09/21 01:59:15;;;;;;;7.40;1.15;;;;;;;;;;4975224;28;20191;-91
2023/09/21 02:01:43;;;;;;;4.95;1.20;;;;;;;;;;4975290;28;20226;-92
2023/09/21 02:04:10;;;;;;;5.95;1.42;;;;;;;;;;4975256;28;20241;-90
2023/09/21 02:06:39;;;;;;;10.25;2.28;;;;;;;;;;4975299;28;20277;-89
2023/09/21 02:09:09;;;;;;;6.20;1.00;;;;;;;;;;4974960;28;20203;-93
2023/09/21 02:11:36;;;;;;;7.75;0.70;;;;;;;;;;4976142;28;20245;-92
2023/09/21 02:14:05;;;;;;;3.30;0.80;;;;;;;;;;4975463;28;20696;-92
2023/09/21 02:16:34;;;;;;;2.97;0.40;;;;;;;;;;4974662;28;20206;-94
2023/09/21 02:19:02;;;;;;;1.43;0.40;;;;;;;;;;4991796;28;20288;-93
2023/09/21 02:21:29;;;;;;;1.60;0.27;;;;;;;;;;4994461;28;20208;-92
2023/09/21 02:23:57;;;;;;;1.60;0.30;;;;;;;;;;4994495;28;20210;-93
2023/09/21 02:26:24;;;;;;;1.33;0.40;;;;;;;;;;4994296;28;20197;-92
2023/09/21 02:28:53;;;;;;;1.73;0.50;;;;;;;;;;4994634;28;20205;-91
2023/09/21 02:31:21;;;;;;;2.00;0.60;;;;;;;;;;4995251;28;20214;-91
2023/09/21 02:33:50;;;;;;;1.30;0.43;;;;;;;;;;4994514;28;20752;-90
2023/09/21 02:36:19;;;;;;;0.93;0.47;;;;;;;;;;4994824;28;20197;-93
2023/09/21 02:38:46;;;;;;;0.70;0.33;;;;;;;;;;4995011;28;20229;-90
2023/09/21 02:41:13;;;;;;;1.40;0.50;;;;;;;;;;4995393;28;20285;-93
2023/09/21 02:43:41;;;;;;;0.93;0.40;;;;;;;;;;4998084;28;20237;-89
2023/09/21 02:46:08;;;;;;;2.70;0.33;;;;;;;;;;4998659;28;20325;-89
2023/09/21 02:48:36;;;;;;;1.63;0.30;;;;;;;;;;4998398;28;20286;-90
2023/09/21 02:51:06;;;;;;;1.00;0.40;;;;;;;;;;4999541;28;20221;-91
2023/09/21 02:53:33;;;;;;;1.00;0.40;;;;;;;;;;5000131;28;20633;-91
2023/09/21 02:56:02;;;;;;;0.73;0.40;;;;;;;;;;5000494;28;20233;-92
2023/09/21 02:58:30;;;;;;;1.67;0.30;;;;;;;;;;4994560;28;20640;-92
2023/09/21 03:00:57;;;;;;;1.47;0.40;;;;;;;;;;4993821;28;20190;-91
2023/09/21 03:03:27;;;;;;;2.00;0.70;;;;;;;;;;4993802;28;20272;-91
2023/09/21 03:05:55;;;;;;;1.23;0.50;;;;;;;;;;4994313;28;20190;-91
2023/09/21 03:08:23;;;;;;;1.00;0.40;;;;;;;;;;4993996;28;20836;-91
2023/09/21 03:10:52;;;;;;;2.20;0.50;;;;;;;;;;4994754;28;20391;-91
2023/09/21 03:13:20;;;;;;;0.80;0.40;;;;;;;;;;4994020;28;20316;-91
2023/09/21 03:15:47;;;;;;;1.57;0.50;;;;;;;;;;4993892;28;20198;-91
2023/09/21 03:18:15;;;;;;;0.93;0.40;;;;;;;;;;4984405;28;20209;-91
2023/09/21 03:20:43;;;;;;;2.23;0.60;;;;;;;;;;4974336;28;20724;-91
2023/09/21 03:23:12;;;;;;;1.13;0.60;;;;;;;;;;4957699;28;20203;-91
2023/09/21 03:25:41;;;;;;;1.50;0.50;;;;;;;;;;4974665;28;20265;-92
2023/09/21 03:28:10;;;;;;;3.27;0.77;;;;;;;;;;4974020;28;20187;-91
2023/09/21 03:30:39;;;;;;;2.77;0.67;;;;;;;;;;4974857;28;20195;-92
2023/09/21 03:33:06;;;;;;;1.73;0.70;;;;;;;;;;4974297;28;20680;-92
2023/09/21 03:35:34;;;;;;;1.03;0.50;;;;;;;;;;4960606;28;20768;-93
2023/09/21 03:38:01;;;;;;;1.87;0.60;;;;;;;;;;4978476;28;20222;-91
2023/09/21 03:40:30;;;;;;;1.70;0.57;;;;;;;;;;4977704;28;20194;-92
2023/09/21 03:42:59;;;;;;;1.83;0.70;;;;;;;;;;4978169;28;20249;-92
2023/09/21 03:45:27;;;;;;;3.03;0.90;;;;;;;;;;4978012;28;20190;-91
2023/09/21 03:47:54;;;;;;;2.13;0.90;;;;;;;;;;4978476;28;20206;-92
2023/09/21 03:50:27;;;;;;;3.60;0.80;;;;;;;;;;4977776;28;20203;-92
2023/09/21 03:52:54;;;;;;;3.80;0.80;;;;;;;;;;4977860;28;20673;-92
2023/09/21 03:55:22;;;;;;;2.83;0.93;;;;;;;;;;4977817;28;20246;-91
2023/09/21 03:57:50;;;;;;;3.13;1.10;;;;;;;;;;4977567;28;20190;-90
2023/09/21 04:00:25;;;;;;;2.17;1.23;;;;;;;;;;4977701;28;20205;-91
2023/09/21 04:02:53;;;;;;;2.17;1.20;;;;;;;;;;4976949;28;20249;-92
2023/09/21 04:05:20;;;;;;;2.70;1.07;;;;;;;;;;4977348;28;20290;-92
2023/09/21 04:07:49;;;;;;;2.47;1.07;;;;;;;;;;4977540;28;20206;-91
2023/09/21 04:10:16;;;;;;;3.33;1.20;;;;;;;;;;4977468;28;20238;-92
2023/09/21 04:12:44;;;;;;;5.23;1.30;;;;;;;;;;4976808;28;20214;-91
2023/09/21 04:15:12;;;;;;;2.47;1.00;;;;;;;;;;4977672;28;20206;-92
2023/09/21 04:17:44;;;;;;;3.03;1.20;;;;;;;;;;4977286;28;20752;-92
2023/09/21 04:20:12;;;;;;;4.60;1.20;;;;;;;;;;4977449;28;20241;-91
2023/09/21 04:22:40;;;;;;;3.13;1.10;;;;;;;;;;4977726;28;20269;-94
2023/09/21 04:25:09;;;;;;;3.03;1.10;;;;;;;;;;4977481;28;20203;-91
2023/09/21 04:27:38;;;;;;;2.70;1.20;;;;;;;;;;4977143;28;20195;-92
2023/09/21 04:30:06;;;;;;;4.37;1.20;;;;;;;;;;4960089;28;20205;-93
2023/09/21 04:32:35;;;;;;;3.17;1.00;;;;;;;;;;4976944;28;20613;-92
2023/09/21 04:35:05;;;;;;;4.93;1.20;;;;;;;;;;4977540;28;20201;-93
2023/09/21 04:37:33;;;;;;;4.80;1.00;;;;;;;;;;4976723;28;20194;-90
2023/09/21 04:40:01;;;;;;;3.83;1.00;;;;;;;;;;4976955;28;20257;-92
2023/09/21 04:42:30;;;;;;;2.93;0.90;;;;;;;;;;4976885;28;20191;-88
2023/09/21 04:44:58;;;;;;;5.13;1.23;;;;;;;;;;4976311;28;20194;-91
2023/09/21 04:47:27;;;;;;;4.23;1.20;;;;;;;;;;4976131;28;20199;-88
2023/09/21 04:49:55;;;;;;;4.20;1.20;;;;;;;;;;4977423;28;20206;-91
2023/09/21 04:52:24;;;;;;;6.90;1.30;;;;;;;;;;4976729;28;20277;-91
2023/09/21 04:54:52;;;;;;;4.30;1.30;;;;;;;;;;4976137;28;20210;-91
2023/09/21 04:57:20;;;;;;;4.07;1.00;;;;;;;;;;4977369;28;20285;-91
2023/09/21 04:59:48;;;;;;;5.73;1.40;;;;;;;;;;4976847;28;20696;-91
2023/09/21 05:02:15;;;;;;;6.33;1.33;;;;;;;;;;4976279;28;20692;-93
2023/09/21 05:04:43;;;;;;;5.07;1.40;;;;;;;;;;4977212;28;20195;-92
2023/09/21 05:07:09;;;;;;;3.27;1.20;;;;;;;;;;4976991;28;20591;-92
2023/09/21 05:09:38;;;;;;;4.50;1.30;;;;;;;;;;4976814;28;20210;-90
2023/09/21 05:12:06;;;;;;;5.33;1.30;;;;;;;;;;4977833;28;20199;-91
2023/09/21 05:14:34;;;;;;;4.07;1.30;;;;;;;;;;4980450;28;20223;-91
2023/09/21 05:17:05;;;;;;;3.97;1.17;;;;;;;;;;4982297;28;20266;-91
2023/09/21 05:19:33;;;;;;;5.90;1.40;;;;;;;;;;5002264;28;20259;-92
2023/09/21 05:22:00;;;;;;;3.83;1.50;;;;;;;;;;5000609;28;20206;-91
2023/09/21 05:24:29;;;;;;;4.17;1.53;;;;;;;;;;4998699;28;20212;-90
2023/09/21 05:26:58;;;;;;;5.70;1.40;;;;;;;;;;4986431;28;20716;-92
2023/09/21 05:29:25;;;;;;;2.80;1.20;;;;;;;;;;4994700;28;20256;-90
2023/09/21 05:31:53;;;;;;;4.97;1.73;;;;;;;;;;4990085;28;20261;-93
2023/09/21 05:34:20;;;;;;;3.63;1.47;;;;;;;;;;4995042;28;20317;-87
2023/09/21 05:36:50;;;;;;;5.90;1.60;;;;;;;;;;4993463;28;20194;-93
2023/09/21 05:39:19;;;;;;;3.63;1.40;;;;;;;;;;4996997;28;20193;-93
2023/09/21 05:41:46;;;;;;;2.87;1.80;;;;;;;;;;4987172;28;20258;-91
2023/09/21 05:44:15;;;;;;;7.17;2.00;;;;;;;;;;4988176;28;20202;-92
2023/09/21 05:46:43;;;;;;;4.30;1.67;;;;;;;;;;5002221;28;20209;-93
2023/09/21 05:49:11;;;;;;;3.70;1.90;;;;;;;;;;5017663;28;20197;-94
2023/09/21 05:51:39;;;;;;;4.43;2.17;;;;;;;;;;5016645;28;20205;-93
2023/09/21 05:54:08;;;;;;;4.97;2.37;;;;;;;;;;5014786;28;20232;-94
2023/09/21 05:56:36;;;;;;;5.70;2.77;;;;;;;;;;5015421;28;20230;-92
2023/09/21 05:59:04;;;;;;;8.63;2.60;;;;;;;;;;5015824;28;20664;-94
2023/09/21 06:01:33;;;;;;;5.63;2.77;;;;;;;;;;5015068;28;20675;-92
2023/09/21 06:04:02;;;;;;;7.83;2.90;;;;;;;;;;5014308;28;20233;-93
2023/09/21 06:06:30;;;;;;;5.40;2.47;;;;;;;;;;5019167;28;20203;-92
2023/09/21 06:08:57;;;;;;;5.10;2.17;;;;;;;;;;5019041;28;20204;-92
2023/09/21 06:11:26;;;;;;;5.93;2.40;;;;;;;;;;5017393;28;20227;-92
2023/09/21 06:13:55;;;;;;;5.37;2.43;;;;;;;;;;5014490;28;20235;-92
2023/09/21 06:16:22;;;;;;;7.83;2.70;;;;;;;;;;5015311;28;20236;-92
2023/09/21 06:18:51;;;;;;;4.20;2.20;;;;;;;;;;4999542;28;20205;-92
2023/09/21 06:21:18;;;;;;;5.77;2.80;;;;;;;;;;4999333;28;20206;-92
2023/09/21 06:23:46;;;;;;;6.57;2.43;;;;;;;;;;4995917;28;20209;-90
2023/09/21 06:26:29;;;;;;;9.03;2.70;;;;;;;;;;4997978;28;20288;-91
2023/09/21 06:28:59;;;;;;;10.50;2.83;;;;;;;;;;5002875;28;20201;-90
2023/09/21 06:31:27;;;;;;;7.33;2.60;;;;;;;;;;5013085;28;20282;-90
2023/09/21 06:34:09;;;;;;;6.47;2.33;;;;;;;;;;5011332;28;20232;-91
2023/09/21 06:36:37;;;;;;;8.13;2.80;;;;;;;;;;5013594;28;20213;-91
2023/09/21 06:39:08;;;;;;;4.97;2.50;;;;;;;;;;5013071;28;20206;-90
2023/09/21 06:41:37;;;;;;;7.47;2.37;;;;;;;;;;5011817;28;20901;-91
2023/09/21 06:44:10;;;;;;;6.83;2.60;;;;;;;;;;5011585;28;20224;-91
2023/09/21 06:46:46;;;;;;;6.00;2.53;;;;;;;;;;4996416;28;20197;-91
2023/09/21 06:49:15;;;;;;;5.30;2.33;;;;;;;;;;4994820;28;20217;-82
2023/09/21 06:51:42;;;;;;;7.60;3.00;;;;;;;;;;4992941;28;20694;-87
2023/09/21 06:54:16;;;;;;;4.90;2.57;;;;;;;;;;4993561;28;20610;-89
2023/09/21 06:56:43;;;;;;;9.27;3.50;;;;;;;;;;4993200;28;20194;-86
2023/09/21 06:59:16;;;;;;;5.87;2.93;;;;;;;;;;4993660;28;20620;-90
2023/09/21 07:01:43;;;;;;;8.37;3.30;;;;;;;;;;4993290;28;20229;-82
2023/09/21 07:04:11;;;;;;;7.83;3.77;;;;;;;;;;4992023;28;20267;-87
2023/09/21 07:06:40;;;;;;;9.33;4.47;;;;;;;;;;4993278;28;20212;-86
2023/09/21 07:09:09;;;;;;;12.13;3.90;;;;;;;;;;4994448;28;20261;-88
2023/09/21 07:11:42;;;;;;;8.70;4.50;;;;;;;;;;4997096;28;20201;-88
2023/09/21 07:14:09;;;;;;;6.67;4.30;;;;;;;;;;4997302;28;20237;-87
2023/09/21 07:16:37;;;;;;;7.40;4.63;;;;;;;;;;4997271;28;20206;-87
2023/09/21 07:19:04;;;;;;;8.57;4.53;;;;;;;;;;4980435;28;20273;-87
2023/09/21 07:21:31;;;;;;;8.60;4.40;;;;;;;;;;4977016;28;20206;-86
2023/09/21 07:24:00;;;;;;;7.97;4.63;;;;;;;;;;4977349;28;20665;-86
2023/09/21 07:26:27;;;;;;;9.27;5.00;;;;;;;;;;4977367;28;20206;-86
2023/09/21 07:28:55;;;;;;;7.40;4.43;;;;;;;;;;4976965;28;20206;-86
2023/09/21 07:31:22;;;;;;;7.60;4.33;;;;;;;;;;4976992;28;20209;-86
2023/09/21 07:33:56;;;;;;;8.87;4.90;;;;;;;;;;4976885;28;20233;-86
2023/09/21 07:36:24;;;;;;;6.93;4.40;;;;;;;;;;4976166;28;20195;-88
2023/09/21 07:38:53;;;;;;;8.57;5.20;;;;;;;;;;4977399;28;20677;-88
2023/09/21 07:41:26;;;;;;;10.70;5.13;;;;;;;;;;4976905;28;20226;-86
2023/09/21 07:44:18;;;;;;;10.60;4.37;;;;;;;;;;4977045;28;20206;-87
2023/09/21 07:46:52;;;;;;;12.65;4.20;;;;;;;;;;4976940;28;20252;-87
2023/09/21 07:49:37;;;;;;;7.55;3.72;;;;;;;;;;4976886;28;20720;-87
2023/09/21 07:52:05;;;;;;;4.28;2.00;;;;;;;;;;4977306;28;20272;-87
2023/09/21 07:54:37;;;;;;;3.40;2.10;;;;;;;;;;4977088;28;20238;-87
2023/09/21 07:57:17;;;;;;;4.25;2.33;;;;;;;;;;4977273;28;20207;-90
2023/09/21 07:59:48;;;;;;;4.78;2.30;;;;;;;;;;4977317;28;20210;-87
2023/09/21 08:02:25;;;;;;;6.60;2.58;;;;;;;;;;4977323;28;20612;-89
2023/09/21 08:04:55;;;;;;;5.45;2.70;;;;;;;;;;4976882;28;20213;-90
2023/09/21 08:07:25;;;;;;;5.38;2.75;;;;;;;;;;4976814;28;20199;-88
2023/09/21 08:09:54;;;;;;;7.45;2.95;;;;;;;;;;4977058;28;20198;-87
2023/09/21 08:12:23;;;;;;;5.57;3.28;;;;;;;;;;4976871;28;20195;-87
2023/09/21 08:14:50;;;;;;;6.03;3.35;;;;;;;;;;4976860;28;20712;-89
2023/09/21 08:17:29;;;;;;;8.80;3.47;;;;;;;;;;4976817;28;20249;-88
2023/09/21 08:19:57;;;;;;;9.85;3.97;;;;;;;;;;4976039;28;20917;-89
2023/09/21 08:22:26;;;;;;;8.35;4.07;;;;;;;;;;4976579;28;20203;-89
2023/09/21 08:28:00;;;;;;;5.63;3.00;;;;;;;;;;4959872;28;20217;-88
2023/09/21 08:30:28;;;;;;;8.68;2.92;;;;;;;;;;4975625;28;20206;-88
2023/09/21 08:32:55;;;;;;;6.10;2.15;;;;;;;;;;4975739;28;20207;-87
2023/09/21 08:35:25;;;;;;;6.80;2.03;;;;;;;;;;4976362;28;20252;-88
2023/09/21 08:37:56;;;;;;;4.30;2.35;;;;;;;;;;4976128;28;20213;-85
2023/09/21 08:40:31;;;;;;;5.60;2.33;;;;;;;;;;4976217;28;20204;-87
2023/09/21 08:43:09;;;;;;;6.18;2.17;;;;;;;;;;4976253;28;20683;-87
2023/09/21 08:45:38;;;;;;;5.00;2.30;;;;;;;;;;4976140;28;20218;-88
2023/09/21 08:48:10;;;;;;;7.75;2.25;;;;;;;;;;4976189;28;20206;-88
2023/09/21 08:50:42;;;;;;;9.10;2.55;;;;;;;;;;4975798;28;20210;-87
2023/09/21 08:55:52;;;;;;;6.03;2.38;;;;;;;;;;4974846;28;20233;-86
2023/09/21 08:58:27;;;;;;;8.25;2.45;;;;;;;;;;4976261;28;20201;-88
2023/09/21 09:01:08;;;;;;;4.63;2.13;;;;;;;;;;4975767;28;20217;-88
2023/09/21 09:03:43;;;;;;;6.18;2.00;;;;;;;;;;4975165;28;20606;-88
2023/09/21 09:06:35;;;;;;;5.22;2.08;;;;;;;;;;4975885;28;20701;-88
2023/09/21 09:09:02;;;;;;;6.90;1.83;;;;;;;;;;4972026;28;20206;-88
2023/09/21 09:11:40;;;;;;;10.40;1.90;;;;;;;;;;4975377;28;20203;-87
2023/09/21 09:14:17;;;;;;;5.43;1.52;;;;;;;;;;4975757;28;20233;-89
2023/09/21 09:16:46;;;;;;;6.47;2.22;;;;;;;;;;4975483;28;20206;-88
2023/09/21 09:22:31;;;;;;;6.55;2.15;;;;;;;;;;4993576;28;20695;-88
2023/09/21 09:25:05;;;;;;;9.57;2.38;;;;;;;;;;4995338;28;20209;-88
2023/09/21 09:27:33;;;;;;;9.77;2.28;;;;;;;;;;4994683;28;20267;-87
2023/09/21 09:30:04;;;;;;;5.55;1.80;;;;;;;;;;4994382;28;21005;-87
2023/09/21 09:32:47;;;;;;;6.38;2.22;;;;;;;;;;4993811;28;20656;-86
2023/09/21 09:35:20;;;;;;;8.77;2.25;;;;;;;;;;4993940;28;20365;-87
2023/09/21 09:38:08;;;;;;;5.43;2.45;;;;;;;;;;4995306;28;20660;-86
2023/09/21 09:40:37;;;;;;;8.25;2.50;;;;;;;;;;4915798;29;20196;-88
2023/09/21 09:43:05;;;;;;;6.95;1.83;;;;;;;;;;4916143;29;20212;-89
2023/09/21 09:45:37;;;;;;;7.07;1.80;;;;;;;;;;4915657;29;20623;-88
2023/09/21 09:48:19;;;;;;;5.88;1.70;;;;;;;;;;4916122;29;20301;-88
2023/09/21 09:50:49;;;;;;;7.03;1.70;;;;;;;;;;4915958;29;20731;-89
2023/09/21 09:53:25;;;;;;;6.57;2.10;;;;;;;;;;4916224;29;20212;-91
2023/09/21 09:58:48;;;;;;;5.45;2.00;;;;;;;;;;4634842;23;10002149;-87
2023/09/21 10:01:20;;;;;;;6.95;2.13;;;;;;;;;;4973000;28;20261;-86
2023/09/21 10:06:36;;;;;;;9.52;2.83;;;;;;;;;;4971198;28;20615;-86
2023/09/21 10:09:09;;;;;;;8.73;2.67;;;;;;;;;;4975069;28;20233;-87
2023/09/21 10:11:39;;;;;;;6.25;2.67;;;;;;;;;;4971952;28;20202;-86
2023/09/21 10:14:12;;;;;;;6.10;2.65;;;;;;;;;;4970680;28;20620;-85
2023/09/21 10:16:49;;;;;;;5.82;2.60;;;;;;;;;;4971479;28;20199;-86
2023/09/21 10:19:21;;;;;;;8.35;2.97;;;;;;;;;;4970595;28;20677;-86
2023/09/21 10:21:49;;;;;;;7.05;3.13;;;;;;;;;;4971533;28;20203;-85
2023/09/21 10:24:18;;;;;;;9.70;2.92;;;;;;;;;;4971382;28;20194;-85
2023/09/21 10:26:50;;;;;;;10.52;2.53;;;;;;;;;;4971828;28;20206;-85
2023/09/21 10:29:29;;;;;;;7.47;2.47;;;;;;;;;;4971138;28;20236;-86
2023/09/21 10:32:01;;;;;;;6.20;2.10;;;;;;;;;;4971147;28;20198;-86
2023/09/21 10:34:40;;;;;;;7.00;1.92;;;;;;;;;;4971569;28;20309;-86
2023/09/21 10:37:10;;;;;;;7.38;2.08;;;;;;;;;;4971172;28;20206;-86
2023/09/21 10:42:43;;;;;;;5.15;1.60;;;;;;;;;;4970375;28;20583;-86
2023/09/21 10:45:13;;;;;;;8.25;2.05;;;;;;;;;;4951624;28;20210;-86
2023/09/21 10:47:52;;;;;;;7.95;1.90;;;;;;;;;;4972107;28;20214;-86
2023/09/21 10:50:20;;;;;;;9.50;2.45;;;;;;;;;;4971700;28;20240;-86
2023/09/21 10:52:49;;;;;;;6.93;1.85;;;;;;;;;;4972079;28;20210;-86
2023/09/21 10:55:17;;;;;;;6.88;1.60;;;;;;;;;;4971208;28;20273;-86
2023/09/21 10:57:46;;;;;;;6.75;1.70;;;;;;;;;;4950570;29;20239;-85
2023/09/21 11:00:20;;;;;;;8.40;1.60;;;;;;;;;;4952185;28;20563;-86
2023/09/21 11:02:49;;;;;;;6.18;1.48;;;;;;;;;;4952435;28;20210;-84
2023/09/21 11:05:25;;;;;;;7.35;1.42;;;;;;;;;;4952303;28;20231;-87
2023/09/21 11:08:08;;;;;;;5.85;1.60;;;;;;;;;;4952528;28;20217;-87
2023/09/21 11:10:35;;;;;;;4.78;1.60;;;;;;;;;;4952568;28;20670;-87
2023/09/21 11:13:02;;;;;;;5.57;1.48;;;;;;;;;;4951763;28;20669;-86
2023/09/21 11:15:32;;;;;;;5.47;1.73;;;;;;;;;;4952229;29;20238;-85
2023/09/21 11:17:59;;;;;;;11.18;5.10;;;;;;;;;;4959259;28;20289;-86
2023/09/21 11:20:30;;;;;;;10.32;6.20;;;;;;;;;;4971240;28;20210;-87
2023/09/21 11:22:57;;;;;;;10.13;5.50;;;;;;;;;;4973625;28;20203;-87
2023/09/21 11:25:26;;;;;;;5.40;3.58;;;;;;;;;;4973189;28;20198;-87
2023/09/21 11:27:53;;;;;;;8.85;3.65;;;;;;;;;;4973362;28;20207;-87
2023/09/21 11:30:22;;;;;;;6.65;3.15;;;;;;;;;;4972951;28;20214;-88
2023/09/21 11:32:50;;;;;;;6.72;2.70;;;;;;;;;;4972918;28;20202;-85
2023/09/21 11:35:24;;;;;;;8.88;2.55;;;;;;;;;;4972805;28;20242;-86
2023/09/21 11:37:53;;;;;;;7.93;2.28;;;;;;;;;;4972581;28;20201;-87
2023/09/21 11:40:22;;;;;;;5.28;1.95;;;;;;;;;;4973147;28;20254;-86
2023/09/21 11:42:53;;;;;;;6.10;2.17;;;;;;;;;;4972996;28;20199;-88
2023/09/21 11:45:21;;;;;;;4.82;1.77;;;;;;;;;;4974055;28;20210;-87
2023/09/21 11:47:52;;;;;;;4.55;1.52;;;;;;;;;;4974289;28;20206;-89
2023/09/21 11:50:18;;;;;;;4.50;1.70;;;;;;;;;;4974222;28;20207;-91
2023/09/21 11:52:48;;;;;;;5.13;1.60;;;;;;;;;;4973559;28;20807;-88
2023/09/21 11:55:18;;;;;;;5.07;1.65;;;;;;;;;;4973419;28;20226;-85
2023/09/21 11:57:45;;;;;;;5.32;1.80;;;;;;;;;;4975762;28;20654;-86
2023/09/21 12:00:17;;;;;;;6.00;1.73;;;;;;;;;;4975760;28;20628;-86
2023/09/21 12:02:45;;;;;;;6.43;1.88;;;;;;;;;;4976037;28;20214;-86
2023/09/21 12:05:14;;;;;;;6.53;1.92;;;;;;;;;;4975762;28;20213;-85
2023/09/21 12:07:42;;;;;;;5.15;1.65;;;;;;;;;;4975976;28;20813;-86
2023/09/21 12:10:10;;;;;;;4.68;1.42;;;;;;;;;;4975339;28;20236;-85
2023/09/21 12:12:38;;;;;;;4.93;1.60;;;;;;;;;;4975720;28;20198;-85
2023/09/21 12:15:06;;;;;;;4.25;1.40;;;;;;;;;;4975449;28;20265;-84
2023/09/21 12:17:36;;;;;;;7.07;1.42;;;;;;;;;;4975686;28;20678;-86
2023/09/21 12:20:11;;;;;;;3.72;1.30;;;;;;;;;;4975798;28;20206;-86
2023/09/21 12:22:38;;;;;;;4.85;1.17;;;;;;;;;;4975773;28;20289;-86
2023/09/21 12:25:06;;;;;;;4.38;1.50;;;;;;;;;;4975750;28;20222;-86
2023/09/21 12:27:35;;;;;;;4.03;1.48;;;;;;;;;;4975109;28;20194;-83
2023/09/21 12:30:05;;;;;;;4.70;1.40;;;;;;;;;;4975082;28;20252;-83
2023/09/21 12:32:32;;;;;;;8.70;1.90;;;;;;;;;;4975283;28;20277;-83
2023/09/21 12:35:02;;;;;;;6.95;1.40;;;;;;;;;;4974701;28;20260;-82
2023/09/21 12:37:30;;;;;;;5.80;1.40;;;;;;;;;;4974606;28;20220;-83
2023/09/21 12:39:57;;;;;;;4.90;1.30;;;;;;;;;;4974536;28;20202;-83
2023/09/21 12:42:25;;;;;;;3.05;1.13;;;;;;;;;;4974866;28;20206;-84
2023/09/21 12:44:52;;;;;;;4.03;0.95;;;;;;;;;;4974108;28;20237;-82
2023/09/21 12:47:21;;;;;;;1.90;1.00;;;;;;;;;;4974562;28;20588;-83
2023/09/21 12:49:49;;;;;;;1.90;0.73;;;;;;;;;;4974358;28;20194;-82
2023/09/21 12:52:17;;;;;;;4.57;1.00;;;;;;;;;;4974791;28;20230;-82
2023/09/21 12:54:45;;;;;;;2.00;0.80;;;;;;;;;;4974118;28;20209;-83
2023/09/21 12:57:15;;;;;;;2.35;0.80;;;;;;;;;;4974302;28;20335;-82
2023/09/21 12:59:44;;;;;;;3.63;0.80;;;;;;;;;;4974698;28;20198;-82
2023/09/21 13:02:13;;;;;;;1.67;0.60;;;;;;;;;;4974475;28;20194;-81
2023/09/21 13:04:42;;;;;;;3.25;0.80;;;;;;;;;;4974272;28;20206;-82
2023/09/21 13:07:10;;;;;;;2.47;0.70;;;;;;;;;;4973367;28;20301;-82
2023/09/21 13:09:37;;;;;;;1.83;0.90;;;;;;;;;;4973746;28;20205;-82
2023/09/21 13:12:04;;;;;;;2.65;0.50;;;;;;;;;;4973926;28;20206;-81
2023/09/21 13:14:32;;;;;;;2.05;0.68;;;;;;;;;;4974102;28;20253;-81
2023/09/21 13:17:04;;;;;;;1.67;0.68;;;;;;;;;;4974071;28;20245;-82
2023/09/21 13:19:31;;;;;;;2.28;0.63;;;;;;;;;;4974030;28;20206;-81
2023/09/21 13:22:00;;;;;;;1.42;0.63;;;;;;;;;;4973635;28;20736;-82
2023/09/21 13:24:27;;;;;;;3.17;0.43;;;;;;;;;;4973822;28;20285;-82
2023/09/21 13:26:54;;;;;;;1.85;0.70;;;;;;;;;;4973817;28;20198;-82
2023/09/21 13:29:21;;;;;;;1.67;0.60;;;;;;;;;;4973898;28;20550;-82
2023/09/21 13:31:49;;;;;;;2.55;1.00;;;;;;;;;;4973496;28;20262;-82
2023/09/21 13:34:17;;;;;;;3.28;0.90;;;;;;;;;;4974016;28;20241;-82
2023/09/21 13:36:45;;;;;;;4.45;1.00;;;;;;;;;;4973022;28;20265;-81
2023/09/21 13:39:14;;;;;;;4.55;1.10;;;;;;;;;;4973628;28;20213;-81
2023/09/21 13:41:41;;;;;;;3.15;0.98;;;;;;;;;;4973381;28;20203;-82
2023/09/21 13:44:10;;;;;;;2.17;1.00;;;;;;;;;;4973625;28;20203;-81
2023/09/21 13:46:37;;;;;;;2.92;1.08;;;;;;;;;;4973831;28;20210;-82
2023/09/21 13:49:04;;;;;;;2.72;0.80;;;;;;;;;;4973691;28;20203;-81
2023/09/21 13:51:33;;;;;;;3.08;0.70;;;;;;;;;;4972491;28;20638;-83
2023/09/21 13:54:04;;;;;;;1.23;0.57;;;;;;;;;;4973498;28;20346;-82
2023/09/21 13:56:32;;;;;;;0.82;0.50;;;;;;;;;;4972960;28;20277;-83
2023/09/21 13:59:00;;;;;;;3.05;0.52;;;;;;;;;;4973642;28;20258;-84
2023/09/21 14:01:27;;;;;;;1.88;0.55;;;;;;;;;;4974012;28;20261;-83
2023/09/21 14:03:55;;;;;;;1.10;0.40;;;;;;;;;;4973212;28;20229;-77
2023/09/21 14:06:22;;;;;;;0.52;0.38;;;;;;;;;;4973159;28;20202;-78
2023/09/21 14:08:50;;;;;;;1.65;0.35;;;;;;;;;;4972633;28;20735;-78
2023/09/21 14:11:17;;;;;;;1.75;0.50;;;;;;;;;;4973223;28;20265;-78
2023/09/21 14:13:46;;;;;;;1.17;0.30;;;;;;;;;;4973976;28;20206;-78
2023/09/21 14:16:13;;;;;;;1.73;0.60;;;;;;;;;;4975607;28;20264;-78
2023/09/21 14:18:40;;;;;;;1.20;0.28;;;;;;;;;;4972937;28;20202;-78
2023/09/21 14:21:07;;;;;;;1.15;0.40;;;;;;;;;;4974785;28;20257;-77
2023/09/21 14:23:35;;;;;;;1.00;0.50;;;;;;;;;;4975518;28;20206;-76
2023/09/21 14:26:03;;;;;;;1.13;0.32;;;;;;;;;;4973749;28;20673;-77
2023/09/21 14:28:30;;;;;;;2.05;0.45;;;;;;;;;;4973968;28;20274;-78
2023/09/21 14:30:59;;;;;;;1.88;0.47;;;;;;;;;;4976995;28;20199;-78
2023/09/21 14:33:27;;;;;;;0.68;0.30;;;;;;;;;;4973391;28;20222;-78
2023/09/21 14:35:54;;;;;;;2.15;0.57;;;;;;;;;;4971696;28;20234;-78
2023/09/21 14:38:22;;;;;;;1.88;0.50;;;;;;;;;;4976877;28;20202;-78
2023/09/21 14:40:49;;;;;;;2.42;0.45;;;;;;;;;;4973719;28;20203;-79
2023/09/21 14:43:16;;;;;;;1.67;0.50;;;;;;;;;;4972072;28;20270;-78
2023/09/21 14:45:43;;;;;;;1.98;0.50;;;;;;;;;;4973030;28;20639;-79
2023/09/21 14:48:12;;;;;;;3.70;0.60;;;;;;;;;;4972768;28;20696;-79
2023/09/21 14:50:40;;;;;;;1.88;0.45;;;;;;;;;;4973532;28;20649;-79
2023/09/21 14:53:08;;;;;;;1.83;0.57;;;;;;;;;;4972731;28;20302;-78
2023/09/21 14:55:35;;;;;;;2.05;0.60;;;;;;;;;;4972826;28;20229;-78
2023/09/21 14:58:02;;;;;;;1.15;0.50;;;;;;;;;;4971966;28;20267;-79
2023/09/21 15:00:29;;;;;;;1.20;0.50;;;;;;;;;;4973055;28;20209;-79
2023/09/21 15:02:56;;;;;;;2.95;0.63;;;;;;;;;;4972340;28;20663;-79
2023/09/21 15:05:25;;;;;;;1.25;0.55;;;;;;;;;;4972115;28;20760;-79
2023/09/21 15:07:53;;;;;;;2.80;0.65;;;;;;;;;;4972610;28;20207;-79
2023/09/21 15:10:20;;;;;;;1.40;0.60;;;;;;;;;;4972309;28;20206;-78
2023/09/21 15:12:48;;;;;;;1.52;0.70;;;;;;;;;;4972984;28;20245;-79